createdAt,value
2022-10-25T00:00:19.397Z,1008.04
2022-10-25T00:01:19.469Z,1008.05
2022-10-25T00:02:19.483Z,1008.07
2022-10-25T00:03:19.361Z,1008.07
2022-10-25T00:05:19.333Z,1008.02
2022-10-25T00:06:19.320Z,1008.02
2022-10-25T00:07:19.315Z,1008.00
2022-10-25T00:08:19.290Z,1008.04
2022-10-25T00:09:19.318Z,1008.04
2022-10-25T00:10:22.264Z,1008.02
2022-10-25T00:11:20.267Z,1008.11
2022-10-25T00:12:19.239Z,1008.09
2022-10-25T00:13:19.238Z,1008.06
2022-10-25T00:14:19.223Z,1008.08
2022-10-25T00:15:19.211Z,1008.05
2022-10-25T00:16:19.197Z,1008.14
2022-10-25T00:17:19.183Z,1008.11
2022-10-25T00:18:19.153Z,1008.12
2022-10-25T00:19:19.157Z,1008.15
2022-10-25T00:20:19.179Z,1008.10
2022-10-25T00:21:19.127Z,1008.08
2022-10-25T00:22:19.104Z,1008.15
2022-10-25T00:23:19.096Z,1008.21
2022-10-25T00:24:19.112Z,1008.14
2022-10-25T00:25:20.026Z,1008.13
2022-10-25T00:26:19.058Z,1008.07
2022-10-25T00:27:19.043Z,1008.07
2022-10-25T00:28:19.053Z,1008.08
2022-10-25T00:29:19.080Z,1008.09
2022-10-25T00:30:19.009Z,1008.11
2022-10-25T00:31:18.990Z,1008.08
2022-10-25T00:32:18.968Z,1008.10
2022-10-25T00:33:18.962Z,1008.13
2022-10-25T00:34:18.959Z,1008.09
2022-10-25T00:35:18.986Z,1008.10
2022-10-25T00:36:18.921Z,1008.04
2022-10-25T00:37:18.902Z,1008.02
2022-10-25T00:38:18.900Z,1008.05
2022-10-25T00:39:18.895Z,1008.09
2022-10-25T00:40:18.862Z,1008.10
2022-10-25T00:41:18.885Z,1008.11
2022-10-25T00:42:18.846Z,1008.04
2022-10-25T00:43:18.831Z,1008.07
2022-10-25T00:44:18.826Z,1008.12
2022-10-25T00:45:18.807Z,1008.09
2022-10-25T00:46:18.781Z,1008.10
2022-10-25T00:47:18.778Z,1008.09
2022-10-25T00:48:18.783Z,1008.10
2022-10-25T00:49:18.747Z,1008.14
2022-10-25T00:50:18.727Z,1008.16
2022-10-25T00:51:18.848Z,1008.11
2022-10-25T00:52:18.702Z,1008.08
2022-10-25T00:53:18.708Z,1008.10
2022-10-25T00:54:18.721Z,1008.04
2022-10-25T00:55:18.669Z,1008.05
2022-10-25T00:56:18.664Z,1008.05
2022-10-25T00:57:18.647Z,1008.09
2022-10-25T00:58:18.640Z,1008.09
2022-10-25T00:59:18.613Z,1008.09
2022-10-25T01:00:18.607Z,1008.09
2022-10-25T01:01:18.696Z,1008.13
2022-10-25T01:02:18.638Z,1008.06
2022-10-25T01:03:18.579Z,1008.17
2022-10-25T01:04:18.537Z,1008.11
2022-10-25T01:05:18.545Z,1008.11
2022-10-25T01:06:18.513Z,1008.09
2022-10-25T01:07:18.510Z,1008.10
2022-10-25T01:08:18.516Z,1008.17
2022-10-25T01:09:18.504Z,1008.12
2022-10-25T01:10:18.460Z,1008.13
2022-10-25T01:11:18.454Z,1008.22
2022-10-25T01:12:18.456Z,1008.14
2022-10-25T01:13:18.442Z,1008.13
2022-10-25T01:14:18.421Z,1008.17
2022-10-25T01:15:18.401Z,1008.07
2022-10-25T01:16:18.384Z,1008.11
2022-10-25T01:17:18.376Z,1008.11
2022-10-25T01:18:18.355Z,1008.14
2022-10-25T01:19:18.353Z,1008.16
2022-10-25T01:20:18.344Z,1008.17
2022-10-25T01:21:18.323Z,1008.12
2022-10-25T01:22:18.297Z,1008.15
2022-10-25T01:23:18.307Z,1008.17
2022-10-25T01:24:18.280Z,1008.23
2022-10-25T01:25:19.234Z,1008.18
2022-10-25T01:26:18.250Z,1008.11
2022-10-25T01:27:18.253Z,1008.14
2022-10-25T01:28:18.218Z,1008.17
2022-10-25T01:29:18.224Z,1008.16
2022-10-25T01:30:18.223Z,1008.15
2022-10-25T01:31:18.179Z,1008.24
2022-10-25T01:32:18.187Z,1008.26
2022-10-25T01:33:18.170Z,1008.23
2022-10-25T01:34:18.158Z,1008.22
2022-10-25T01:35:18.135Z,1008.18
2022-10-25T01:36:18.114Z,1008.19
2022-10-25T01:37:18.100Z,1008.18
2022-10-25T01:38:18.109Z,1008.18
2022-10-25T01:39:18.087Z,1008.21
2022-10-25T01:40:18.053Z,1008.23
2022-10-25T01:41:18.049Z,1008.14
2022-10-25T01:42:18.041Z,1008.18
2022-10-25T01:43:18.037Z,1008.16
2022-10-25T01:44:18.012Z,1008.20
2022-10-25T01:45:17.993Z,1008.19
2022-10-25T01:46:17.979Z,1008.18
2022-10-25T01:47:17.979Z,1008.21
2022-10-25T01:48:17.979Z,1008.18
2022-10-25T01:49:17.944Z,1008.21
2022-10-25T01:50:17.926Z,1008.21
2022-10-25T01:51:17.916Z,1008.24
2022-10-25T01:52:17.921Z,1008.24
2022-10-25T01:53:17.897Z,1008.24
2022-10-25T01:54:17.882Z,1008.27
2022-10-25T01:55:17.857Z,1008.26
2022-10-25T01:56:17.846Z,1008.23
2022-10-25T01:57:17.837Z,1008.25
2022-10-25T01:58:17.831Z,1008.23
2022-10-25T01:59:17.813Z,1008.27
2022-10-25T02:00:17.796Z,1008.26
2022-10-25T02:01:17.953Z,1008.20
2022-10-25T02:02:17.786Z,1008.24
2022-10-25T02:03:17.776Z,1008.24
2022-10-25T02:04:17.745Z,1008.23
2022-10-25T02:05:17.730Z,1008.27
2022-10-25T02:06:17.728Z,1008.23
2022-10-25T02:07:17.750Z,1008.20
2022-10-25T02:08:17.691Z,1008.28
2022-10-25T02:09:17.684Z,1008.23
2022-10-25T02:10:17.657Z,1008.26
2022-10-25T02:11:17.668Z,1008.20
2022-10-25T02:12:17.639Z,1008.24
2022-10-25T02:13:17.624Z,1008.27
2022-10-25T02:14:17.620Z,1008.30
2022-10-25T02:15:17.593Z,1008.23
2022-10-25T02:16:17.578Z,1008.23
2022-10-25T02:17:17.565Z,1008.24
2022-10-25T02:18:17.581Z,1008.28
2022-10-25T02:19:17.570Z,1008.24
2022-10-25T02:20:17.529Z,1008.27
2022-10-25T02:21:17.517Z,1008.27
2022-10-25T02:22:17.491Z,1008.29
2022-10-25T02:23:17.501Z,1008.31
2022-10-25T02:24:17.469Z,1008.34
2022-10-25T02:25:17.479Z,1008.33
2022-10-25T02:26:17.448Z,1008.32
2022-10-25T02:27:17.440Z,1008.31
2022-10-25T02:28:17.421Z,1008.32
2022-10-25T02:29:17.430Z,1008.32
2022-10-25T02:30:17.389Z,1008.36
2022-10-25T02:31:17.403Z,1008.31
2022-10-25T02:32:17.373Z,1008.34
2022-10-25T02:33:17.359Z,1008.29
2022-10-25T02:34:17.339Z,1008.40
2022-10-25T02:35:17.337Z,1008.38
2022-10-25T02:36:17.301Z,1008.34
2022-10-25T02:37:17.327Z,1008.39
2022-10-25T02:38:17.294Z,1008.38
2022-10-25T02:39:17.288Z,1008.38
2022-10-25T02:40:17.256Z,1008.38
2022-10-25T02:41:17.281Z,1008.40
2022-10-25T02:42:17.252Z,1008.43
2022-10-25T02:43:17.268Z,1008.36
2022-10-25T02:44:17.205Z,1008.36
2022-10-25T02:45:17.205Z,1008.47
2022-10-25T02:46:17.183Z,1008.39
2022-10-25T02:47:17.164Z,1008.39
2022-10-25T02:48:17.151Z,1008.42
2022-10-25T02:49:17.153Z,1008.44
2022-10-25T02:50:17.132Z,1008.52
2022-10-25T02:51:17.127Z,1008.44
2022-10-25T02:52:17.090Z,1008.44
2022-10-25T02:53:17.111Z,1008.48
2022-10-25T02:54:17.091Z,1008.46
2022-10-25T02:55:17.063Z,1008.42
2022-10-25T02:56:17.052Z,1008.42
2022-10-25T02:57:17.038Z,1008.54
2022-10-25T02:58:17.013Z,1008.50
2022-10-25T02:59:17.021Z,1008.48
2022-10-25T03:00:17.005Z,1008.44
2022-10-25T03:01:17.047Z,1008.52
2022-10-25T03:02:16.970Z,1008.49
2022-10-25T03:03:16.948Z,1008.50
2022-10-25T03:04:16.936Z,1008.45
2022-10-25T03:05:16.947Z,1008.50
2022-10-25T03:06:16.899Z,1008.53
2022-10-25T03:07:16.925Z,1008.46
2022-10-25T03:08:16.901Z,1008.52
2022-10-25T03:09:16.869Z,1008.48
2022-10-25T03:10:16.862Z,1008.52
2022-10-25T03:11:16.868Z,1008.55
2022-10-25T03:12:16.830Z,1008.52
2022-10-25T03:13:16.821Z,1008.50
2022-10-25T03:14:16.821Z,1008.55
2022-10-25T03:15:16.811Z,1008.64
2022-10-25T03:16:16.771Z,1008.64
2022-10-25T03:17:16.762Z,1008.56
2022-10-25T03:18:16.743Z,1008.60
2022-10-25T03:19:16.795Z,1008.61
2022-10-25T03:20:16.720Z,1008.61
2022-10-25T03:21:16.740Z,1008.67
2022-10-25T03:22:16.689Z,1008.68
2022-10-25T03:23:16.691Z,1008.65
2022-10-25T03:24:16.681Z,1008.68
2022-10-25T03:25:16.659Z,1008.65
2022-10-25T03:26:16.630Z,1008.64
2022-10-25T03:27:16.622Z,1008.67
2022-10-25T03:28:16.605Z,1008.71
2022-10-25T03:29:16.622Z,1008.74
2022-10-25T03:30:16.724Z,1008.70
2022-10-25T03:31:16.570Z,1008.72
2022-10-25T03:32:16.558Z,1008.76
2022-10-25T03:33:16.628Z,1008.75
2022-10-25T03:34:16.578Z,1008.82
2022-10-25T03:35:16.535Z,1008.88
2022-10-25T03:36:16.507Z,1008.85
2022-10-25T03:37:16.489Z,1008.86
2022-10-25T03:38:16.485Z,1008.82
2022-10-25T03:39:16.489Z,1008.87
2022-10-25T03:40:16.457Z,1008.82
2022-10-25T03:41:16.439Z,1008.80
2022-10-25T03:42:16.423Z,1008.91
2022-10-25T03:43:16.492Z,1008.89
2022-10-25T03:44:16.417Z,1008.84
2022-10-25T03:45:16.397Z,1008.86
2022-10-25T03:46:16.374Z,1008.92
2022-10-25T03:47:16.353Z,1008.93
2022-10-25T03:48:16.358Z,1008.89
2022-10-25T03:49:16.346Z,1008.93
2022-10-25T03:50:16.322Z,1008.92
2022-10-25T03:51:16.309Z,1008.94
2022-10-25T03:52:16.293Z,1008.87
2022-10-25T03:53:16.271Z,1008.90
2022-10-25T03:54:16.263Z,1008.93
2022-10-25T03:55:16.267Z,1008.93
2022-10-25T03:56:16.236Z,1009.02
2022-10-25T03:57:16.228Z,1008.97
2022-10-25T03:58:16.320Z,1008.96
2022-10-25T03:59:16.219Z,1009.00
2022-10-25T04:00:16.195Z,1008.94
2022-10-25T04:01:16.502Z,1009.00
2022-10-25T04:02:16.172Z,1009.03
2022-10-25T04:03:16.136Z,1009.04
2022-10-25T04:04:16.147Z,1008.98
2022-10-25T04:05:16.117Z,1008.96
2022-10-25T04:06:16.127Z,1008.97
2022-10-25T04:07:16.108Z,1008.98
2022-10-25T04:08:16.078Z,1009.00
2022-10-25T04:09:16.080Z,1009.05
2022-10-25T04:10:16.046Z,1009.08
2022-10-25T04:11:16.092Z,1009.02
2022-10-25T04:12:16.048Z,1009.03
2022-10-25T04:13:16.006Z,1009.01
2022-10-25T04:14:16.009Z,1009.05
2022-10-25T04:15:15.991Z,1009.03
2022-10-25T04:16:18.389Z,1009.08
2022-10-25T04:17:15.956Z,1009.07
2022-10-25T04:18:15.948Z,1009.05
2022-10-25T04:19:15.962Z,1009.06
2022-10-25T04:20:15.915Z,1009.07
2022-10-25T04:21:15.913Z,1009.04
2022-10-25T04:22:15.899Z,1009.09
2022-10-25T04:23:15.867Z,1009.15
2022-10-25T04:24:15.893Z,1009.06
2022-10-25T04:25:15.852Z,1009.05
2022-10-25T04:26:15.844Z,1009.06
2022-10-25T04:27:15.826Z,1009.08
2022-10-25T04:28:15.818Z,1009.07
2022-10-25T04:29:15.820Z,1009.08
2022-10-25T04:30:15.784Z,1009.07
2022-10-25T04:31:15.777Z,1009.06
2022-10-25T04:32:15.797Z,1009.05
2022-10-25T04:33:15.742Z,1009.02
2022-10-25T04:34:15.744Z,1009.07
2022-10-25T04:35:15.735Z,1009.03
2022-10-25T04:36:15.708Z,1009.02
2022-10-25T04:37:15.684Z,1009.05
2022-10-25T04:38:15.673Z,1009.06
2022-10-25T04:39:15.687Z,1009.03
2022-10-25T04:40:15.654Z,1009.03
2022-10-25T04:41:15.643Z,1009.04
2022-10-25T04:42:15.632Z,1009.01
2022-10-25T04:43:15.623Z,1009.05
2022-10-25T04:44:15.610Z,1009.02
2022-10-25T04:45:15.579Z,1009.08
2022-10-25T04:46:15.582Z,1009.00
2022-10-25T04:47:15.548Z,1008.99
2022-10-25T04:48:15.559Z,1008.97
2022-10-25T04:49:15.549Z,1009.03
2022-10-25T04:50:15.520Z,1009.02
2022-10-25T04:51:15.521Z,1008.98
2022-10-25T04:52:15.504Z,1009.04
2022-10-25T04:53:15.487Z,1009.04
2022-10-25T04:54:15.471Z,1008.99
2022-10-25T04:55:15.453Z,1008.98
2022-10-25T04:56:15.430Z,1009.00
2022-10-25T04:57:15.431Z,1009.06
2022-10-25T04:58:15.410Z,1009.08
2022-10-25T04:59:15.421Z,1009.15
2022-10-25T05:00:15.395Z,1009.05
2022-10-25T05:01:15.414Z,1009.10
2022-10-25T05:02:15.359Z,1009.12
2022-10-25T05:03:15.370Z,1009.08
2022-10-25T05:04:15.322Z,1009.09
2022-10-25T05:05:15.344Z,1009.17
2022-10-25T05:06:15.298Z,1009.12
2022-10-25T05:07:15.831Z,1009.16
2022-10-25T05:08:15.283Z,1009.13
2022-10-25T05:09:15.266Z,1009.04
2022-10-25T05:10:15.259Z,1009.10
2022-10-25T05:11:15.232Z,1009.09
2022-10-25T05:12:15.229Z,1009.07
2022-10-25T05:13:15.220Z,1009.12
2022-10-25T05:14:15.195Z,1009.13
2022-10-25T05:15:15.215Z,1009.10
2022-10-25T05:16:15.171Z,1009.14
2022-10-25T05:17:15.155Z,1009.08
2022-10-25T05:18:15.147Z,1009.17
2022-10-25T05:19:15.134Z,1009.19
2022-10-25T05:20:15.140Z,1009.20
2022-10-25T05:21:15.135Z,1009.18
2022-10-25T05:22:15.091Z,1009.21
2022-10-25T05:23:15.073Z,1009.16
2022-10-25T05:24:15.114Z,1009.12
2022-10-25T05:25:15.040Z,1009.15
2022-10-25T05:26:15.072Z,1009.23
2022-10-25T05:27:15.030Z,1009.25
2022-10-25T05:28:15.019Z,1009.24
2022-10-25T05:29:15.034Z,1009.23
2022-10-25T05:30:14.987Z,1009.24
2022-10-25T05:31:14.979Z,1009.27
2022-10-25T05:32:14.954Z,1009.18
2022-10-25T05:33:14.985Z,1009.21
2022-10-25T05:34:14.947Z,1009.23
2022-10-25T05:35:14.906Z,1009.28
2022-10-25T05:36:14.903Z,1009.27
2022-10-25T05:37:14.883Z,1009.28
2022-10-25T05:38:14.878Z,1009.28
2022-10-25T05:39:14.997Z,1009.28
2022-10-25T05:40:14.858Z,1009.33
2022-10-25T05:41:14.974Z,1009.36
2022-10-25T05:42:14.829Z,1009.34
2022-10-25T05:43:14.828Z,1009.36
2022-10-25T05:44:14.931Z,1009.36
2022-10-25T05:45:14.807Z,1009.42
2022-10-25T05:46:14.760Z,1009.38
2022-10-25T05:47:14.753Z,1009.40
2022-10-25T05:48:14.745Z,1009.43
2022-10-25T05:49:14.747Z,1009.40
2022-10-25T05:50:14.723Z,1009.40
2022-10-25T05:51:32.658Z,1009.46
2022-10-25T05:52:15.695Z,1009.48
2022-10-25T05:53:14.680Z,1009.51
2022-10-25T05:54:14.689Z,1009.50
2022-10-25T05:55:14.648Z,1009.45
2022-10-25T05:56:14.632Z,1009.49
2022-10-25T05:57:14.616Z,1009.48
2022-10-25T05:58:14.605Z,1009.47
2022-10-25T05:59:14.744Z,1009.53
2022-10-25T06:00:14.588Z,1009.53
2022-10-25T06:01:14.641Z,1009.51
2022-10-25T06:02:14.691Z,1009.60
2022-10-25T06:03:14.548Z,1009.56
2022-10-25T06:04:14.554Z,1009.59
2022-10-25T06:05:14.517Z,1009.61
2022-10-25T06:06:14.503Z,1009.49
2022-10-25T06:07:14.483Z,1009.59
2022-10-25T06:08:14.485Z,1009.57
2022-10-25T06:09:14.481Z,1009.62
2022-10-25T06:10:14.446Z,1009.58
2022-10-25T06:11:14.432Z,1009.59
2022-10-25T06:12:14.429Z,1009.57
2022-10-25T06:13:14.411Z,1009.59
2022-10-25T06:14:14.402Z,1009.67
2022-10-25T06:15:14.376Z,1009.66
2022-10-25T06:16:14.369Z,1009.69
2022-10-25T06:17:14.345Z,1009.69
2022-10-25T06:18:14.341Z,1009.67
2022-10-25T06:19:14.354Z,1009.75
2022-10-25T06:20:14.313Z,1009.72
2022-10-25T06:21:14.308Z,1009.69
2022-10-25T06:22:14.286Z,1009.69
2022-10-25T06:23:14.300Z,1009.82
2022-10-25T06:24:14.274Z,1009.79
2022-10-25T06:25:14.239Z,1009.80
2022-10-25T06:26:14.238Z,1009.77
2022-10-25T06:27:14.222Z,1009.85
2022-10-25T06:28:14.216Z,1009.81
2022-10-25T06:29:14.196Z,1009.79
2022-10-25T06:30:14.182Z,1009.81
2022-10-25T06:31:14.171Z,1009.81
2022-10-25T06:32:14.170Z,1009.84
2022-10-25T06:33:14.138Z,1009.84
2022-10-25T06:34:14.138Z,1009.91
2022-10-25T06:35:14.102Z,1009.89
2022-10-25T06:36:14.119Z,1009.90
2022-10-25T06:37:14.080Z,1009.88
2022-10-25T06:38:14.076Z,1009.91
2022-10-25T06:39:14.072Z,1009.89
2022-10-25T06:40:14.076Z,1009.93
2022-10-25T06:41:14.072Z,1009.96
2022-10-25T06:42:14.021Z,1009.93
2022-10-25T06:43:14.035Z,1009.89
2022-10-25T06:44:14.010Z,1009.91
2022-10-25T06:45:13.970Z,1009.97
2022-10-25T06:46:13.974Z,1009.95
2022-10-25T06:47:17.325Z,1009.96
2022-10-25T06:48:13.942Z,1009.99
2022-10-25T06:49:13.944Z,1010.06
2022-10-25T06:50:13.917Z,1010.04
2022-10-25T06:51:13.902Z,1010.04
2022-10-25T06:52:13.893Z,1010.05
2022-10-25T06:53:13.876Z,1010.02
2022-10-25T06:54:13.879Z,1010.03
2022-10-25T06:55:13.845Z,1010.08
2022-10-25T06:56:14.870Z,1009.99
2022-10-25T06:57:13.817Z,1010.02
2022-10-25T06:58:13.806Z,1010.13
2022-10-25T06:59:13.792Z,1010.16
2022-10-25T07:00:13.808Z,1010.09
2022-10-25T07:01:13.896Z,1010.18
2022-10-25T07:02:13.794Z,1010.24
2022-10-25T07:03:13.753Z,1010.22
2022-10-25T07:04:13.763Z,1010.23
2022-10-25T07:05:13.708Z,1010.25
2022-10-25T07:06:13.712Z,1010.22
2022-10-25T07:07:13.690Z,1010.29
2022-10-25T07:08:13.675Z,1010.24
2022-10-25T07:09:13.666Z,1010.24
2022-10-25T07:10:13.642Z,1010.15
2022-10-25T07:11:13.623Z,1010.23
2022-10-25T07:12:13.631Z,1010.21
2022-10-25T07:13:13.613Z,1010.29
2022-10-25T07:14:13.603Z,1010.24
2022-10-25T07:15:13.638Z,1010.28
2022-10-25T07:16:13.575Z,1010.29
2022-10-25T07:17:13.555Z,1010.32
2022-10-25T07:18:13.559Z,1010.30
2022-10-25T07:19:13.538Z,1010.28
2022-10-25T07:20:13.520Z,1010.35
2022-10-25T07:21:13.515Z,1010.34
2022-10-25T07:22:13.485Z,1010.34
2022-10-25T07:23:13.473Z,1010.34
2022-10-25T07:24:13.464Z,1010.36
2022-10-25T07:25:13.465Z,1010.40
2022-10-25T07:26:13.444Z,1010.34
2022-10-25T07:27:13.418Z,1010.41
2022-10-25T07:28:13.409Z,1010.43
2022-10-25T07:29:13.394Z,1010.43
2022-10-25T07:30:13.395Z,1010.45
2022-10-25T07:31:13.365Z,1010.38
2022-10-25T07:32:13.346Z,1010.37
2022-10-25T07:33:13.343Z,1010.45
2022-10-25T07:34:13.344Z,1010.43
2022-10-25T07:35:13.305Z,1010.38
2022-10-25T07:36:13.312Z,1010.38
2022-10-25T07:37:13.283Z,1010.40
2022-10-25T07:38:13.270Z,1010.38
2022-10-25T07:39:13.252Z,1010.47
2022-10-25T07:40:13.263Z,1010.44
2022-10-25T07:41:13.234Z,1010.41
2022-10-25T07:42:13.241Z,1010.44
2022-10-25T07:43:13.218Z,1010.47
2022-10-25T07:44:16.746Z,1010.58
2022-10-25T07:45:16.182Z,1010.63
2022-10-25T07:46:13.168Z,1010.53
2022-10-25T07:47:13.144Z,1010.61
2022-10-25T07:48:13.149Z,1010.58
2022-10-25T07:49:13.153Z,1010.53
2022-10-25T07:50:13.112Z,1010.59
2022-10-25T07:51:13.095Z,1010.58
2022-10-25T07:52:13.091Z,1010.63
2022-10-25T07:53:13.065Z,1010.60
2022-10-25T07:54:13.173Z,1010.68
2022-10-25T07:55:13.044Z,1010.72
2022-10-25T07:56:13.099Z,1010.73
2022-10-25T07:57:13.052Z,1010.69
2022-10-25T07:58:13.001Z,1010.72
2022-10-25T07:59:13.027Z,1010.84
2022-10-25T08:00:12.970Z,1010.75
2022-10-25T08:01:13.012Z,1010.70
2022-10-25T08:02:12.954Z,1010.75
2022-10-25T08:03:13.001Z,1010.84
2022-10-25T08:04:12.939Z,1010.85
2022-10-25T08:05:12.913Z,1010.75
2022-10-25T08:06:12.895Z,1010.84
2022-10-25T08:07:12.892Z,1010.82
2022-10-25T08:08:12.888Z,1010.81
2022-10-25T08:09:15.060Z,1010.78
2022-10-25T08:10:13.844Z,1010.86
2022-10-25T08:11:12.838Z,1010.87
2022-10-25T08:12:12.832Z,1010.87
2022-10-25T08:13:12.800Z,1010.90
2022-10-25T08:14:12.921Z,1010.94
2022-10-25T08:15:12.777Z,1010.86
2022-10-25T08:16:12.762Z,1010.83
2022-10-25T08:17:12.763Z,1010.93
2022-10-25T08:18:12.734Z,1010.80
2022-10-25T08:19:12.738Z,1010.88
2022-10-25T08:20:12.743Z,1010.86
2022-10-25T08:21:12.728Z,1010.84
2022-10-25T08:22:13.628Z,1010.89
2022-10-25T08:23:12.680Z,1010.86
2022-10-25T08:24:12.758Z,1010.91
2022-10-25T08:25:12.726Z,1011.04
2022-10-25T08:26:12.631Z,1010.98
2022-10-25T08:27:12.618Z,1010.91
2022-10-25T08:28:12.605Z,1010.99
2022-10-25T08:29:12.604Z,1011.09
2022-10-25T08:30:12.599Z,1011.05
2022-10-25T08:31:12.584Z,1011.07
2022-10-25T08:32:12.548Z,1011.05
2022-10-25T08:33:12.536Z,1011.02
2022-10-25T08:34:12.564Z,1011.05
2022-10-25T08:35:12.527Z,1011.04
2022-10-25T08:36:12.503Z,1011.08
2022-10-25T08:37:12.488Z,1011.06
2022-10-25T08:38:12.493Z,1011.09
2022-10-25T08:39:12.470Z,1011.10
2022-10-25T08:40:12.461Z,1011.08
2022-10-25T08:41:12.430Z,1011.13
2022-10-25T08:42:12.413Z,1011.11
2022-10-25T08:43:12.438Z,1011.15
2022-10-25T08:44:12.410Z,1011.10
2022-10-25T08:45:12.395Z,1011.14
2022-10-25T08:46:12.366Z,1011.07
2022-10-25T08:47:12.401Z,1011.16
2022-10-25T08:48:12.340Z,1011.14
2022-10-25T08:49:12.332Z,1011.18
2022-10-25T08:50:12.338Z,1011.21
2022-10-25T08:51:12.303Z,1011.21
2022-10-25T08:52:15.267Z,1011.27
2022-10-25T08:53:13.272Z,1011.21
2022-10-25T08:54:12.304Z,1011.26
2022-10-25T08:55:12.284Z,1011.31
2022-10-25T08:56:16.667Z,1011.29
2022-10-25T08:57:16.307Z,1011.28
2022-10-25T08:58:12.221Z,1011.30
2022-10-25T08:59:12.244Z,1011.26
2022-10-25T09:00:12.193Z,1011.37
2022-10-25T09:01:12.307Z,1011.35
2022-10-25T09:02:12.229Z,1011.26
2022-10-25T09:03:15.179Z,1011.37
2022-10-25T09:04:12.122Z,1011.35
2022-10-25T09:05:12.130Z,1011.33
2022-10-25T09:06:12.116Z,1011.38
2022-10-25T09:07:12.087Z,1011.32
2022-10-25T09:08:12.074Z,1011.39
2022-10-25T09:09:12.084Z,1011.38
2022-10-25T09:10:12.045Z,1011.41
2022-10-25T09:11:12.124Z,1011.43
2022-10-25T09:12:12.029Z,1011.45
2022-10-25T09:13:12.011Z,1011.38
2022-10-25T09:14:11.992Z,1011.51
2022-10-25T09:15:11.982Z,1011.52
2022-10-25T09:16:12.016Z,1011.51
2022-10-25T09:17:11.988Z,1011.58
2022-10-25T09:18:11.942Z,1011.57
2022-10-25T09:19:11.963Z,1011.61
2022-10-25T09:20:11.917Z,1011.48
2022-10-25T09:21:14.910Z,1011.56
2022-10-25T09:22:12.892Z,1011.55
2022-10-25T09:23:11.934Z,1011.55
2022-10-25T09:24:11.864Z,1011.54
2022-10-25T09:25:11.883Z,1011.56
2022-10-25T09:26:11.894Z,1011.51
2022-10-25T09:27:11.822Z,1011.62
2022-10-25T09:28:11.813Z,1011.62
2022-10-25T09:29:11.824Z,1011.50
2022-10-25T09:30:11.778Z,1011.50
2022-10-25T09:31:11.783Z,1011.55
2022-10-25T09:32:11.756Z,1011.58
2022-10-25T09:33:11.812Z,1011.54
2022-10-25T09:34:11.821Z,1011.60
2022-10-25T09:35:11.724Z,1011.50
2022-10-25T09:36:11.725Z,1011.64
2022-10-25T09:37:11.696Z,1011.63
2022-10-25T09:38:11.676Z,1011.60
2022-10-25T09:39:15.796Z,1011.57
2022-10-25T09:40:11.681Z,1011.61
2022-10-25T09:41:11.653Z,1011.62
2022-10-25T09:42:11.629Z,1011.57
2022-10-25T09:43:11.612Z,1011.60
2022-10-25T09:44:11.594Z,1011.60
2022-10-25T09:45:11.693Z,1011.69
2022-10-25T09:46:11.584Z,1011.60
2022-10-25T09:47:11.563Z,1011.59
2022-10-25T09:48:11.544Z,1011.61
2022-10-25T09:49:11.536Z,1011.63
2022-10-25T09:50:11.525Z,1011.73
2022-10-25T09:51:11.527Z,1011.68
2022-10-25T09:52:11.492Z,1011.66
2022-10-25T09:53:11.489Z,1011.72
2022-10-25T09:54:11.511Z,1011.67
2022-10-25T09:55:11.456Z,1011.65
2022-10-25T09:56:11.447Z,1011.66
2022-10-25T09:57:11.433Z,1011.60
2022-10-25T09:58:11.409Z,1011.67
2022-10-25T09:59:11.397Z,1011.68
2022-10-25T10:00:11.458Z,1011.64
2022-10-25T10:01:11.531Z,1011.77
2022-10-25T10:02:11.527Z,1011.68
2022-10-25T10:03:11.352Z,1011.75
2022-10-25T10:04:11.337Z,1011.72
2022-10-25T10:05:11.333Z,1011.73
2022-10-25T10:06:11.327Z,1011.74
2022-10-25T10:07:11.294Z,1011.75
2022-10-25T10:08:11.279Z,1011.81
2022-10-25T10:09:11.273Z,1011.78
2022-10-25T10:10:11.256Z,1011.75
2022-10-25T10:11:11.253Z,1011.88
2022-10-25T10:12:11.219Z,1011.83
2022-10-25T10:13:11.220Z,1011.92
2022-10-25T10:14:11.232Z,1011.80
2022-10-25T10:15:11.187Z,1011.96
2022-10-25T10:16:11.198Z,1012.25
2022-10-25T10:17:11.153Z,1012.21
2022-10-25T10:18:11.141Z,1011.93
2022-10-25T10:19:11.131Z,1011.94
2022-10-25T10:20:11.203Z,1011.82
2022-10-25T10:21:11.111Z,1011.90
2022-10-25T10:22:11.085Z,1011.80
2022-10-25T10:23:11.074Z,1011.86
2022-10-25T10:24:11.062Z,1011.97
2022-10-25T10:25:11.054Z,1011.87
2022-10-25T10:26:11.045Z,1011.89
2022-10-25T10:27:11.027Z,1011.90
2022-10-25T10:28:10.998Z,1011.81
2022-10-25T10:29:15.417Z,1012.02
2022-10-25T10:30:11.979Z,1012.12
2022-10-25T10:31:10.984Z,1011.94
2022-10-25T10:32:10.945Z,1011.97
2022-10-25T10:33:10.977Z,1011.93
2022-10-25T10:34:10.937Z,1011.97
2022-10-25T10:35:10.921Z,1011.92
2022-10-25T10:36:10.929Z,1012.02
2022-10-25T10:37:10.899Z,1011.91
2022-10-25T10:38:10.877Z,1011.90
2022-10-25T10:39:10.907Z,1011.96
2022-10-25T10:40:10.849Z,1011.94
2022-10-25T10:41:10.842Z,1011.85
2022-10-25T10:42:14.902Z,1011.97
2022-10-25T10:43:10.805Z,1011.90
2022-10-25T10:44:10.856Z,1012.11
2022-10-25T10:45:10.778Z,1011.99
2022-10-25T10:46:10.784Z,1011.94
2022-10-25T10:47:10.771Z,1011.88
2022-10-25T10:48:10.769Z,1011.96
2022-10-25T10:49:10.727Z,1012.19
2022-10-25T10:50:10.717Z,1011.98
2022-10-25T10:51:25.152Z,1011.99
2022-10-25T10:52:11.744Z,1011.91
2022-10-25T10:53:10.689Z,1011.92
2022-10-25T10:54:10.663Z,1011.95
2022-10-25T10:55:10.646Z,1011.89
2022-10-25T10:56:10.672Z,1011.96
2022-10-25T10:57:10.628Z,1011.99
2022-10-25T10:58:10.609Z,1011.95
2022-10-25T10:59:10.610Z,1011.95
2022-10-25T11:00:10.574Z,1011.97
2022-10-25T11:01:10.683Z,1011.93
2022-10-25T11:02:10.874Z,1011.89
2022-10-25T11:03:10.538Z,1011.98
2022-10-25T11:04:10.532Z,1012.02
2022-10-25T11:05:10.517Z,1011.96
2022-10-25T11:06:10.501Z,1012.08
2022-10-25T11:07:10.519Z,1012.00
2022-10-25T11:08:10.561Z,1011.94
2022-10-25T11:09:10.458Z,1012.04
2022-10-25T11:10:10.571Z,1012.21
2022-10-25T11:11:10.431Z,1012.08
2022-10-25T11:12:10.465Z,1012.09
2022-10-25T11:13:10.418Z,1012.10
2022-10-25T11:14:10.402Z,1012.04
2022-10-25T11:15:10.381Z,1012.07
2022-10-25T11:16:10.356Z,1012.06
2022-10-25T11:17:10.480Z,1012.13
2022-10-25T11:18:10.350Z,1012.23
2022-10-25T11:19:10.329Z,1012.20
2022-10-25T11:20:10.382Z,1012.14
2022-10-25T11:21:10.298Z,1012.05
2022-10-25T11:22:10.327Z,1012.16
2022-10-25T11:23:10.273Z,1012.04
2022-10-25T11:24:10.259Z,1012.23
2022-10-25T11:25:10.271Z,1012.24
2022-10-25T11:26:10.239Z,1012.08
2022-10-25T11:27:10.255Z,1012.08
2022-10-25T11:28:10.213Z,1012.12
2022-10-25T11:29:10.208Z,1012.18
2022-10-25T11:30:10.281Z,1012.22
2022-10-25T11:31:10.179Z,1012.49
2022-10-25T11:32:10.192Z,1012.29
2022-10-25T11:33:10.150Z,1012.31
2022-10-25T11:34:10.249Z,1012.38
2022-10-25T11:35:10.138Z,1012.37
2022-10-25T11:36:10.112Z,1012.34
2022-10-25T11:37:10.117Z,1012.33
2022-10-25T11:38:10.108Z,1012.32
2022-10-25T11:39:10.083Z,1012.42
2022-10-25T11:40:10.081Z,1012.39
2022-10-25T11:41:10.040Z,1012.44
2022-10-25T11:42:10.037Z,1012.41
2022-10-25T11:43:10.017Z,1012.42
2022-10-25T11:44:10.052Z,1012.36
2022-10-25T11:45:09.984Z,1012.30
2022-10-25T11:46:09.972Z,1012.40
2022-10-25T11:47:09.967Z,1012.40
2022-10-25T11:48:09.940Z,1012.47
2022-10-25T11:49:09.938Z,1012.44
2022-10-25T11:50:09.927Z,1012.39
2022-10-25T11:51:09.931Z,1012.47
2022-10-25T11:52:09.949Z,1012.41
2022-10-25T11:53:09.881Z,1012.43
2022-10-25T11:54:09.882Z,1012.42
2022-10-25T11:55:09.847Z,1012.50
2022-10-25T11:56:09.835Z,1012.54
2022-10-25T11:57:09.837Z,1012.57
2022-10-25T11:58:09.827Z,1012.43
2022-10-25T11:59:09.866Z,1012.51
2022-10-25T12:00:09.789Z,1012.49
2022-10-25T12:01:09.798Z,1012.57
2022-10-25T12:02:09.770Z,1012.52
2022-10-25T12:03:09.795Z,1012.54
2022-10-25T12:04:09.784Z,1012.55
2022-10-25T12:05:09.726Z,1012.56
2022-10-25T12:06:09.698Z,1012.58